This is the latest recevied weather packets stored in our database for station/object AB4KN. If no packets are shown the sender has not sent any weather packets the latest 10 day(s).
| Time | Temp. | Humidity | Pressure | Rain* | Wind** | Luminosity | Snow |
|---|---|---|---|---|---|---|---|
| 1778095618 | 26.11° C | 66% | 1019.6 hPa | 0 mm | - | 98 W/m² | - |
| 1778095314 | 26.11° C | 66% | 1019.5 hPa | 0 mm | - | 117 W/m² | - |
| 1778095012 | 26.11° C | 66% | 1019.8 hPa | 0 mm | - | 129 W/m² | - |
| 1778094708 | 26.11° C | 65% | 1019.7 hPa | 0 mm | - | 108 W/m² | - |
| 1778094405 | 26.11° C | 65% | 1019.9 hPa | 0 mm | - | 127 W/m² | - |
| 1778094102 | 26.11° C | 65% | 1020 hPa | 0 mm | - | 139 W/m² | - |
| 1778093799 | 25.56° C | 65% | 1019.8 hPa | 0 mm | - | 169 W/m² | - |
| 1778093495 | 25.56° C | 66% | 1020.1 hPa | 0 mm | - | 141 W/m² | - |
| 1778093192 | 25° C | 67% | 1019.9 hPa | 0 mm | - | 115 W/m² | - |
| 1778092890 | 25° C | 67% | 1020.3 hPa | 0 mm | - | 47 W/m² | - |
| 1778092586 | 25.56° C | 66% | 1020.3 hPa | 0 mm | - | 54 W/m² | - |
| 1778092282 | 25.56° C | 66% | 1020.1 hPa | 0 mm | - | 61 W/m² | - |
| 1778091980 | 25.56° C | 65% | 1020 hPa | 0 mm | - | 88 W/m² | - |
| 1778091677 | 25.56° C | 66% | 1020.1 hPa | 0 mm | - | 125 W/m² | - |
| 1778091375 | 25.56° C | 65% | 1020.1 hPa | 0 mm | - | 92 W/m² | - |
| 1778091072 | 26.11° C | 65% | 1020 hPa | 0 mm | - | 66 W/m² | - |
| 1778090768 | 26.11° C | 64% | 1019.9 hPa | 0 mm | - | 76 W/m² | - |
| 1778090465 | 26.11° C | 64% | 1020 hPa | 0 mm | - | 78 W/m² | - |
| 1778090161 | 25.56° C | 64% | 1020.1 hPa | 0 mm | - | 90 W/m² | - |
| 1778089857 | 25.56° C | 64% | 1019.9 hPa | 0 mm | - | 149 W/m² | - |
| 1778089556 | 26.11° C | 65% | 1020.2 hPa | 0 mm | - | 134 W/m² | - |
| 1778089252 | 26.67° C | 63% | 1019.9 hPa | 0 mm | - | 107 W/m² | - |
| 1778088950 | 26.67° C | 62% | 1019.8 hPa | 0 mm | - | 147 W/m² | - |
| 1778088646 | 25.56° C | 64% | 1019.9 hPa | 0 mm | - | 615 W/m² | - |
| 1778088344 | 25.56° C | 66% | 1019.8 hPa | 0 mm | - | 632 W/m² | - |
* Rain latest hour (hover to see other rain measurements)
** Current wind speed in m/s (hover to see current wind gust speed)